AAL4 KLAX-KJFK
Flight info
| Callsign | AAL4 |
|---|---|
| Flight time | 4h 32m |
| Altitude | 35000 |
| Route | OSHNN1 BEALE J146 DVC/N0482F370 KD51W OATHE KD54A MCI RBS BVT JOEBU DORET Q29 JHW Q476 WLKES PUCKY1 |
| Aircraft | B77W/H-SDE1E2E3FGHIJ2J3J4J5M1RWXY/LB1D1 |
Departure
| Time | 2026-05-07 18:19 |
|---|---|
| Airport | Los Angeles International Airport (KLAX) |
Arrival
| Time | 2026-05-07 22:52 |
|---|---|
| Airport | John F. Kennedy International Airport (KJFK) |
| Time | Latitude | Longitude | Altitude | Speed | Heading |
|---|---|---|---|---|---|
| 2026-05-07 17:43 | 33.93960 | -118.40919 | 138 ft | 0 kts | 290° |
| 2026-05-07 18:05 | 33.93955 | -118.40904 | 138 ft | 2 kts | 290° |
| 2026-05-07 18:06 | 33.93950 | -118.40887 | 138 ft | 2 kts | 290° |
| 2026-05-07 18:06 | 33.93947 | -118.40877 | 138 ft | 2 kts | 290° |
| 2026-05-07 18:06 | 33.93944 | -118.40859 | 138 ft | 2 kts | 265° |
| 2026-05-07 18:06 | 33.93947 | -118.40842 | 138 ft | 2 kts | 242° |
| 2026-05-07 18:07 | 33.93956 | -118.40827 | 138 ft | 2 kts | 220° |
| 2026-05-07 18:07 | 33.93969 | -118.40818 | 138 ft | 2 kts | 199° |
| 2026-05-07 18:07 | 33.93984 | -118.40815 | 138 ft | 1 kts | 176° |
| 2026-05-07 18:07 | 33.93990 | -118.40816 | 137 ft | 0 kts | 172° |
| 2026-05-07 18:11 | 33.93982 | -118.40814 | 137 ft | 2 kts | 173° |
| 2026-05-07 18:11 | 33.93970 | -118.40812 | 138 ft | 3 kts | 172° |
| 2026-05-07 18:11 | 33.93928 | -118.40797 | 138 ft | 6 kts | 152° |
| 2026-05-07 18:11 | 33.93888 | -118.40764 | 138 ft | 8 kts | 149° |
| 2026-05-07 18:12 | 33.93835 | -118.40730 | 138 ft | 8 kts | 141° |
| 2026-05-07 18:12 | 33.93812 | -118.40672 | 138 ft | 7 kts | 99° |
| 2026-05-07 18:12 | 33.93816 | -118.40597 | 137 ft | 9 kts | 83° |
| 2026-05-07 18:12 | 33.93826 | -118.40505 | 136 ft | 12 kts | 83° |
| 2026-05-07 18:13 | 33.93837 | -118.40388 | 134 ft | 15 kts | 85° |
| 2026-05-07 18:13 | 33.93851 | -118.40254 | 132 ft | 16 kts | 81° |
| 2026-05-07 18:13 | 33.93869 | -118.40107 | 129 ft | 18 kts | 83° |
| 2026-05-07 18:13 | 33.93883 | -118.39950 | 127 ft | 18 kts | 84° |
| 2026-05-07 18:14 | 33.93898 | -118.39798 | 125 ft | 18 kts | 83° |
| 2026-05-07 18:14 | 33.93914 | -118.39646 | 122 ft | 17 kts | 83° |
| 2026-05-07 18:14 | 33.93929 | -118.39497 | 120 ft | 17 kts | 83° |
| 2026-05-07 18:14 | 33.93944 | -118.39351 | 118 ft | 17 kts | 83° |
| 2026-05-07 18:15 | 33.93958 | -118.39210 | 116 ft | 16 kts | 83° |
| 2026-05-07 18:15 | 33.93973 | -118.39073 | 115 ft | 16 kts | 83° |
| 2026-05-07 18:15 | 33.93988 | -118.38930 | 115 ft | 17 kts | 83° |
| 2026-05-07 18:15 | 33.94003 | -118.38785 | 114 ft | 17 kts | 83° |
| 2026-05-07 18:16 | 33.94018 | -118.38635 | 113 ft | 17 kts | 82° |
| 2026-05-07 18:16 | 33.94033 | -118.38483 | 112 ft | 18 kts | 82° |
| 2026-05-07 18:16 | 33.94049 | -118.38329 | 112 ft | 18 kts | 83° |
| 2026-05-07 18:16 | 33.94065 | -118.38178 | 111 ft | 17 kts | 83° |
| 2026-05-07 18:17 | 33.94080 | -118.38062 | 111 ft | 8 kts | 88° |
| 2026-05-07 18:17 | 33.94079 | -118.38048 | 110 ft | 0 kts | 101° |
| 2026-05-07 18:17 | 33.94077 | -118.38041 | 110 ft | 2 kts | 109° |
| 2026-05-07 18:18 | 33.94058 | -118.38008 | 110 ft | 7 kts | 146° |
| 2026-05-07 18:18 | 33.94005 | -118.38013 | 110 ft | 7 kts | 223° |
| 2026-05-07 18:18 | 33.93981 | -118.38076 | 110 ft | 11 kts | 257° |
| 2026-05-07 18:18 | 33.93950 | -118.38353 | 112 ft | 69 kts | 262° |
| 2026-05-07 18:19 | 33.93856 | -118.39268 | 117 ft | 148 kts | 263° |
| 2026-05-07 18:19 | 33.93714 | -118.40712 | 478 ft | 185 kts | 264° |
| 2026-05-07 18:19 | 33.93586 | -118.42218 | 1426 ft | 186 kts | 266° |
| 2026-05-07 18:19 | 33.93442 | -118.43845 | 1842 ft | 201 kts | 264° |
| 2026-05-07 18:20 | 33.93151 | -118.45549 | 2332 ft | 213 kts | 250° |
| 2026-05-07 18:20 | 33.92363 | -118.47147 | 2763 ft | 230 kts | 234° |
| 2026-05-07 18:20 | 33.91336 | -118.48706 | 3293 ft | 245 kts | 233° |
| 2026-05-07 18:20 | 33.90239 | -118.50315 | 4016 ft | 251 kts | 231° |
| 2026-05-07 18:21 | 33.89086 | -118.51962 | 4561 ft | 264 kts | 232° |
| 2026-05-07 18:21 | 33.87894 | -118.53677 | 5330 ft | 268 kts | 231° |
| 2026-05-07 18:21 | 33.86472 | -118.55111 | 6009 ft | 274 kts | 208° |
| 2026-05-07 18:21 | 33.84663 | -118.55810 | 6742 ft | 277 kts | 186° |
| 2026-05-07 18:22 | 33.82696 | -118.55651 | 7325 ft | 286 kts | 167° |
| 2026-05-07 18:22 | 33.81389 | -118.55286 | 7870 ft | 286 kts | 166° |
| 2026-05-07 18:22 | 33.78804 | -118.54549 | 8926 ft | 288 kts | 166° |
| 2026-05-07 18:22 | 33.76808 | -118.53999 | 9592 ft | 294 kts | 166° |
| 2026-05-07 18:23 | 33.74799 | -118.53443 | 10265 ft | 299 kts | 163° |
| 2026-05-07 18:23 | 33.72766 | -118.52598 | 10635 ft | 314 kts | 154° |
| 2026-05-07 18:23 | 33.70780 | -118.51298 | 11009 ft | 329 kts | 144° |
| 2026-05-07 18:23 | 33.68954 | -118.49552 | 11377 ft | 344 kts | 134° |
| 2026-05-07 18:24 | 33.67331 | -118.47317 | 11765 ft | 357 kts | 123° |
| 2026-05-07 18:24 | 33.66035 | -118.44641 | 12172 ft | 370 kts | 112° |
| 2026-05-07 18:24 | 33.65222 | -118.41655 | 12578 ft | 382 kts | 100° |
| 2026-05-07 18:24 | 33.64709 | -118.38503 | 13235 ft | 389 kts | 99° |
| 2026-05-07 18:25 | 33.64301 | -118.35267 | 14039 ft | 390 kts | 91° |
| 2026-05-07 18:25 | 33.64286 | -118.32011 | 14831 ft | 393 kts | 87° |
| 2026-05-07 18:25 | 33.64337 | -118.28677 | 15626 ft | 398 kts | 87° |
| 2026-05-07 18:25 | 33.64525 | -118.25354 | 16414 ft | 401 kts | 79° |
| 2026-05-07 18:26 | 33.65151 | -118.22107 | 17163 ft | 403 kts | 70° |
| 2026-05-07 18:26 | 33.66222 | -118.18993 | 17880 ft | 405 kts | 62° |
| 2026-05-07 18:26 | 33.67739 | -118.16079 | 18578 ft | 409 kts | 52° |
| 2026-05-07 18:26 | 33.69630 | -118.13534 | 19302 ft | 412 kts | 43° |
| 2026-05-07 18:27 | 33.71878 | -118.11316 | 20011 ft | 416 kts | 37° |
| 2026-05-07 18:27 | 33.74205 | -118.09222 | 20697 ft | 420 kts | 37° |
| 2026-05-07 18:27 | 33.76566 | -118.07107 | 21377 ft | 424 kts | 37° |
| 2026-05-07 18:27 | 33.78167 | -118.05672 | 21809 ft | 427 kts | 37° |
| 2026-05-07 18:28 | 33.81376 | -118.02792 | 22624 ft | 433 kts | 36° |
| 2026-05-07 18:28 | 33.83821 | -118.00595 | 23232 ft | 437 kts | 36° |
| 2026-05-07 18:28 | 33.86249 | -117.98412 | 23836 ft | 441 kts | 36° |
| 2026-05-07 18:28 | 33.88743 | -117.96167 | 24443 ft | 445 kts | 36° |
| 2026-05-07 18:29 | 33.91228 | -117.93928 | 25021 ft | 448 kts | 36° |
| 2026-05-07 18:29 | 33.93720 | -117.91657 | 25597 ft | 452 kts | 36° |
| 2026-05-07 18:29 | 33.96260 | -117.89334 | 26177 ft | 456 kts | 36° |
| 2026-05-07 18:29 | 33.98815 | -117.86996 | 26729 ft | 460 kts | 36° |
| 2026-05-07 18:30 | 34.01351 | -117.84674 | 27244 ft | 464 kts | 36° |
| 2026-05-07 18:30 | 34.03949 | -117.82294 | 27790 ft | 468 kts | 36° |
| 2026-05-07 18:30 | 34.06583 | -117.79878 | 28344 ft | 472 kts | 36° |
| 2026-05-07 18:30 | 34.09071 | -117.77281 | 28872 ft | 477 kts | 44° |
| 2026-05-07 18:31 | 34.11292 | -117.74251 | 29463 ft | 481 kts | 49° |
| 2026-05-07 18:31 | 34.13454 | -117.71059 | 30234 ft | 479 kts | 49° |
| 2026-05-07 18:31 | 34.15579 | -117.67902 | 31114 ft | 475 kts | 49° |
| 2026-05-07 18:31 | 34.17656 | -117.64816 | 32006 ft | 469 kts | 49° |
| 2026-05-07 18:32 | 34.19735 | -117.61723 | 32811 ft | 464 kts | 49° |
| 2026-05-07 18:32 | 34.21771 | -117.58695 | 33429 ft | 462 kts | 49° |
| 2026-05-07 18:32 | 34.23810 | -117.55660 | 33967 ft | 462 kts | 49° |
| 2026-05-07 18:32 | 34.25830 | -117.52651 | 34505 ft | 461 kts | 49° |
| 2026-05-07 18:33 | 34.27843 | -117.49650 | 34993 ft | 461 kts | 49° |
| 2026-05-07 18:33 | 34.29887 | -117.46600 | 35095 ft | 464 kts | 49° |
| 2026-05-07 18:33 | 34.31919 | -117.43565 | 35126 ft | 460 kts | 49° |
| 2026-05-07 18:34 | 34.35954 | -117.37532 | 35163 ft | 459 kts | 49° |
| 2026-05-07 18:34 | 34.40007 | -117.31461 | 35176 ft | 461 kts | 50° |
| 2026-05-07 18:35 | 34.44024 | -117.25433 | 35159 ft | 459 kts | 50° |
| 2026-05-07 18:35 | 34.48050 | -117.19383 | 35154 ft | 459 kts | 50° |
| 2026-05-07 18:36 | 34.52083 | -117.13311 | 35141 ft | 458 kts | 50° |
| 2026-05-07 18:36 | 34.56124 | -117.07281 | 35141 ft | 458 kts | 49° |
| 2026-05-07 18:37 | 34.60205 | -117.01359 | 35140 ft | 457 kts | 49° |
| 2026-05-07 18:37 | 34.64301 | -116.95400 | 35139 ft | 457 kts | 49° |
| 2026-05-07 18:38 | 34.68390 | -116.89432 | 35144 ft | 457 kts | 49° |
| 2026-05-07 18:38 | 34.72468 | -116.83469 | 35143 ft | 456 kts | 49° |
| 2026-05-07 18:39 | 34.76549 | -116.77491 | 35150 ft | 458 kts | 49° |
| 2026-05-07 18:39 | 34.80608 | -116.71532 | 35138 ft | 456 kts | 49° |
| 2026-05-07 18:40 | 34.84678 | -116.65547 | 35116 ft | 456 kts | 49° |
| 2026-05-07 18:40 | 34.88875 | -116.59739 | 35101 ft | 454 kts | 46° |
| 2026-05-07 18:41 | 34.93168 | -116.54057 | 35084 ft | 453 kts | 46° |
| 2026-05-07 18:41 | 34.97461 | -116.48340 | 35067 ft | 453 kts | 46° |
| 2026-05-07 18:42 | 35.01704 | -116.42667 | 35065 ft | 454 kts | 46° |
| 2026-05-07 18:42 | 35.05978 | -116.36935 | 35058 ft | 453 kts | 46° |
| 2026-05-07 18:43 | 35.10245 | -116.31200 | 35059 ft | 453 kts | 47° |
| 2026-05-07 18:43 | 35.14512 | -116.25453 | 35075 ft | 453 kts | 47° |
| 2026-05-07 18:44 | 35.18771 | -116.19707 | 35080 ft | 452 kts | 47° |
| 2026-05-07 18:44 | 35.23060 | -116.13909 | 35070 ft | 451 kts | 47° |
| 2026-05-07 18:45 | 35.27275 | -116.08202 | 35066 ft | 452 kts | 47° |
| 2026-05-07 18:45 | 35.31522 | -116.02443 | 35058 ft | 451 kts | 47° |
| 2026-05-07 18:46 | 35.35741 | -115.96710 | 35075 ft | 451 kts | 47° |
| 2026-05-07 18:46 | 35.39964 | -115.90964 | 35096 ft | 451 kts | 47° |
| 2026-05-07 18:47 | 35.44165 | -115.85238 | 35116 ft | 451 kts | 47° |
| 2026-05-07 18:47 | 35.48361 | -115.79508 | 35124 ft | 450 kts | 47° |
| 2026-05-07 18:48 | 35.52578 | -115.73740 | 35126 ft | 450 kts | 47° |
| 2026-05-07 18:48 | 35.56772 | -115.67993 | 35128 ft | 451 kts | 47° |
| 2026-05-07 18:49 | 35.60988 | -115.62206 | 35136 ft | 450 kts | 47° |
| 2026-05-07 18:49 | 35.65171 | -115.56457 | 35147 ft | 451 kts | 47° |
| 2026-05-07 18:50 | 35.69369 | -115.50674 | 35160 ft | 451 kts | 47° |
| 2026-05-07 18:50 | 35.73537 | -115.44924 | 35157 ft | 450 kts | 47° |
| 2026-05-07 18:51 | 35.77715 | -115.39149 | 35146 ft | 451 kts | 47° |
| 2026-05-07 18:51 | 35.81907 | -115.33344 | 35132 ft | 450 kts | 47° |
| 2026-05-07 18:52 | 35.86091 | -115.27541 | 35115 ft | 451 kts | 47° |
| 2026-05-07 18:52 | 35.90274 | -115.21729 | 35099 ft | 450 kts | 47° |
| 2026-05-07 18:53 | 35.94442 | -115.15928 | 35096 ft | 451 kts | 47° |
| 2026-05-07 18:53 | 35.98633 | -115.10085 | 35091 ft | 451 kts | 47° |
| 2026-05-07 18:54 | 36.02793 | -115.04275 | 35087 ft | 451 kts | 47° |
| 2026-05-07 18:54 | 36.06972 | -114.98428 | 35087 ft | 452 kts | 47° |
| 2026-05-07 18:55 | 36.11132 | -114.92598 | 35093 ft | 451 kts | 47° |
| 2026-05-07 18:55 | 36.15317 | -114.86723 | 35090 ft | 452 kts | 47° |
| 2026-05-07 18:56 | 36.18846 | -114.80205 | 35092 ft | 456 kts | 62° |
| 2026-05-07 18:56 | 36.21208 | -114.72883 | 35102 ft | 460 kts | 66° |
| 2026-05-07 18:57 | 36.23490 | -114.65443 | 35110 ft | 458 kts | 66° |
| 2026-05-07 18:57 | 36.25750 | -114.58039 | 35110 ft | 459 kts | 66° |
| 2026-05-07 18:58 | 36.28006 | -114.50626 | 35111 ft | 459 kts | 66° |
| 2026-05-07 18:58 | 36.30265 | -114.43183 | 35113 ft | 460 kts | 66° |
| 2026-05-07 18:59 | 36.32509 | -114.35764 | 35117 ft | 459 kts | 66° |
| 2026-05-07 18:59 | 36.34761 | -114.28300 | 35126 ft | 460 kts | 67° |
| 2026-05-07 19:00 | 36.37015 | -114.20811 | 35127 ft | 460 kts | 67° |
| 2026-05-07 19:00 | 36.39240 | -114.13397 | 35118 ft | 460 kts | 67° |
| 2026-05-07 19:01 | 36.41490 | -114.05877 | 35125 ft | 460 kts | 67° |
| 2026-05-07 19:01 | 36.43718 | -113.98414 | 35133 ft | 460 kts | 67° |
| 2026-05-07 19:02 | 36.45943 | -113.90941 | 35150 ft | 460 kts | 67° |
| 2026-05-07 19:02 | 36.48162 | -113.83467 | 35170 ft | 460 kts | 67° |
| 2026-05-07 19:03 | 36.50388 | -113.75951 | 35190 ft | 461 kts | 67° |
| 2026-05-07 19:03 | 36.52600 | -113.68459 | 35206 ft | 460 kts | 67° |
| 2026-05-07 19:04 | 36.54816 | -113.60935 | 35217 ft | 461 kts | 67° |
| 2026-05-07 19:04 | 36.57024 | -113.53418 | 35222 ft | 461 kts | 67° |
| 2026-05-07 19:05 | 36.59233 | -113.45876 | 35234 ft | 461 kts | 67° |
| 2026-05-07 19:05 | 36.61424 | -113.38375 | 35236 ft | 462 kts | 67° |
| 2026-05-07 19:06 | 36.63630 | -113.30800 | 35250 ft | 461 kts | 68° |
| 2026-05-07 19:06 | 36.66919 | -113.19454 | 35248 ft | 463 kts | 68° |
| 2026-05-07 19:07 | 36.69093 | -113.11929 | 35255 ft | 462 kts | 68° |
| 2026-05-07 19:07 | 36.71272 | -113.04367 | 35254 ft | 463 kts | 68° |
| 2026-05-07 19:08 | 36.73469 | -112.96719 | 35252 ft | 464 kts | 68° |
| 2026-05-07 19:08 | 36.75641 | -112.89137 | 35252 ft | 462 kts | 68° |
| 2026-05-07 19:09 | 36.77799 | -112.81586 | 35250 ft | 464 kts | 68° |
| 2026-05-07 19:09 | 36.79965 | -112.73984 | 35249 ft | 462 kts | 68° |
| 2026-05-07 19:10 | 36.82132 | -112.66357 | 35250 ft | 464 kts | 68° |
| 2026-05-07 19:10 | 36.84292 | -112.58732 | 35247 ft | 463 kts | 68° |
| 2026-05-07 19:11 | 36.86448 | -112.51100 | 35249 ft | 463 kts | 68° |
| 2026-05-07 19:11 | 36.88597 | -112.43474 | 35248 ft | 464 kts | 68° |
| 2026-05-07 19:12 | 36.90736 | -112.35837 | 35250 ft | 464 kts | 68° |
| 2026-05-07 19:12 | 36.92872 | -112.28210 | 35256 ft | 464 kts | 68° |
| 2026-05-07 19:13 | 36.95017 | -112.20542 | 35247 ft | 464 kts | 68° |
| 2026-05-07 19:13 | 36.97147 | -112.12907 | 35246 ft | 465 kts | 68° |
| 2026-05-07 19:14 | 36.99273 | -112.05260 | 35242 ft | 465 kts | 68° |
| 2026-05-07 19:14 | 37.01414 | -111.97541 | 35241 ft | 465 kts | 68° |
| 2026-05-07 19:15 | 37.03538 | -111.89857 | 35242 ft | 467 kts | 68° |
| 2026-05-07 19:15 | 37.05656 | -111.82174 | 35251 ft | 465 kts | 68° |
| 2026-05-07 19:16 | 37.07768 | -111.74493 | 35244 ft | 467 kts | 68° |
| 2026-05-07 19:16 | 37.09886 | -111.66765 | 35255 ft | 466 kts | 68° |
| 2026-05-07 19:17 | 37.11999 | -111.59033 | 35256 ft | 467 kts | 68° |
| 2026-05-07 19:17 | 37.14096 | -111.51336 | 35258 ft | 467 kts | 68° |
| 2026-05-07 19:18 | 37.16202 | -111.43585 | 35255 ft | 467 kts | 68° |
| 2026-05-07 19:18 | 37.18301 | -111.35838 | 35248 ft | 467 kts | 68° |
| 2026-05-07 19:19 | 37.20394 | -111.28088 | 35244 ft | 469 kts | 69° |
| 2026-05-07 19:19 | 37.22496 | -111.20281 | 35243 ft | 468 kts | 69° |
| 2026-05-07 19:20 | 37.24582 | -111.12504 | 35250 ft | 469 kts | 68° |
| 2026-05-07 19:20 | 37.26666 | -111.04707 | 35255 ft | 469 kts | 68° |
| 2026-05-07 19:21 | 37.28737 | -110.96941 | 35256 ft | 469 kts | 68° |
| 2026-05-07 19:21 | 37.30812 | -110.89133 | 35254 ft | 469 kts | 68° |
| 2026-05-07 19:22 | 37.32886 | -110.81308 | 35253 ft | 471 kts | 68° |
| 2026-05-07 19:22 | 37.34945 | -110.73511 | 35254 ft | 470 kts | 68° |
| 2026-05-07 19:23 | 37.37014 | -110.65658 | 35247 ft | 469 kts | 68° |
| 2026-05-07 19:23 | 37.39083 | -110.57779 | 35246 ft | 471 kts | 68° |
| 2026-05-07 19:24 | 37.41153 | -110.49871 | 35252 ft | 470 kts | 68° |
| 2026-05-07 19:24 | 37.43206 | -110.42001 | 35254 ft | 471 kts | 68° |
| 2026-05-07 19:25 | 37.45246 | -110.34161 | 35255 ft | 471 kts | 69° |
| 2026-05-07 19:25 | 37.47288 | -110.26289 | 35254 ft | 471 kts | 69° |
| 2026-05-07 19:26 | 37.49327 | -110.18403 | 35253 ft | 472 kts | 69° |
| 2026-05-07 19:26 | 37.51363 | -110.10504 | 35249 ft | 474 kts | 69° |
| 2026-05-07 19:27 | 37.53408 | -110.02544 | 35251 ft | 472 kts | 69° |
| 2026-05-07 19:27 | 37.55429 | -109.94654 | 35248 ft | 475 kts | 68° |
| 2026-05-07 19:28 | 37.57459 | -109.86704 | 35251 ft | 474 kts | 69° |
| 2026-05-07 19:28 | 37.59488 | -109.78732 | 35247 ft | 474 kts | 69° |
| 2026-05-07 19:29 | 37.61502 | -109.70793 | 35250 ft | 475 kts | 69° |
| 2026-05-07 19:29 | 37.63525 | -109.62796 | 35252 ft | 477 kts | 68° |
| 2026-05-07 19:30 | 37.65535 | -109.54819 | 35258 ft | 476 kts | 69° |
| 2026-05-07 19:30 | 37.67550 | -109.46800 | 35261 ft | 477 kts | 68° |
| 2026-05-07 19:31 | 37.69552 | -109.38808 | 35260 ft | 478 kts | 68° |
| 2026-05-07 19:31 | 37.71566 | -109.30742 | 35251 ft | 478 kts | 69° |
| 2026-05-07 19:32 | 37.73559 | -109.22729 | 35263 ft | 480 kts | 69° |
| 2026-05-07 19:32 | 37.75568 | -109.14631 | 35261 ft | 479 kts | 69° |
| 2026-05-07 19:33 | 37.77565 | -109.06553 | 35261 ft | 480 kts | 69° |
| 2026-05-07 19:33 | 37.79544 | -108.98517 | 35267 ft | 480 kts | 69° |
| 2026-05-07 19:34 | 37.81318 | -108.90301 | 35283 ft | 483 kts | 74° |
| 2026-05-07 19:34 | 37.82679 | -108.81949 | 35281 ft | 483 kts | 75° |
| 2026-05-07 19:35 | 37.84023 | -108.73612 | 35290 ft | 485 kts | 75° |
| 2026-05-07 19:35 | 37.85375 | -108.65187 | 35321 ft | 485 kts | 75° |
| 2026-05-07 19:36 | 37.86705 | -108.56850 | 35331 ft | 484 kts | 75° |
| 2026-05-07 19:36 | 37.88045 | -108.48414 | 35338 ft | 485 kts | 75° |
| 2026-05-07 19:37 | 37.89368 | -108.40046 | 35343 ft | 485 kts | 75° |
| 2026-05-07 19:37 | 37.90697 | -108.31596 | 35355 ft | 487 kts | 75° |
| 2026-05-07 19:38 | 37.92016 | -108.23173 | 35362 ft | 487 kts | 76° |
| 2026-05-07 19:38 | 37.93335 | -108.14698 | 35365 ft | 487 kts | 76° |
| 2026-05-07 19:39 | 37.94641 | -108.06276 | 35344 ft | 487 kts | 75° |
| 2026-05-07 19:39 | 37.95946 | -107.97811 | 35326 ft | 487 kts | 76° |
| 2026-05-07 19:40 | 37.97247 | -107.89332 | 35324 ft | 488 kts | 75° |
| 2026-05-07 19:40 | 37.98540 | -107.80864 | 35347 ft | 488 kts | 75° |
| 2026-05-07 19:41 | 37.99823 | -107.72416 | 35368 ft | 490 kts | 75° |
| 2026-05-07 19:41 | 38.01111 | -107.63898 | 35372 ft | 489 kts | 75° |
| 2026-05-07 19:42 | 38.02388 | -107.55401 | 35373 ft | 490 kts | 75° |
| 2026-05-07 19:42 | 38.03664 | -107.46872 | 35377 ft | 491 kts | 75° |
| 2026-05-07 19:43 | 38.04939 | -107.38308 | 35386 ft | 491 kts | 75° |
| 2026-05-07 19:43 | 38.06204 | -107.29763 | 35392 ft | 492 kts | 76° |
| 2026-05-07 19:44 | 38.07464 | -107.21203 | 35399 ft | 493 kts | 76° |
| 2026-05-07 19:44 | 38.08725 | -107.12593 | 35404 ft | 493 kts | 76° |
| 2026-05-07 19:45 | 38.09977 | -107.04000 | 35405 ft | 495 kts | 76° |
| 2026-05-07 19:45 | 38.11224 | -106.95396 | 35418 ft | 494 kts | 76° |
| 2026-05-07 19:46 | 38.12465 | -106.86787 | 35408 ft | 495 kts | 76° |
| 2026-05-07 19:46 | 38.13703 | -106.78150 | 35397 ft | 497 kts | 76° |
| 2026-05-07 19:47 | 38.14323 | -106.73814 | 35257 ft | 497 kts | 76° |
| 2026-05-07 19:47 | 38.14937 | -106.69497 | 35377 ft | 499 kts | 76° |
| 2026-05-07 19:47 | 38.16176 | -106.60763 | 35373 ft | 500 kts | 76° |
| 2026-05-07 19:48 | 38.17410 | -106.52010 | 35363 ft | 501 kts | 76° |
| 2026-05-07 19:48 | 38.18634 | -106.43279 | 35338 ft | 501 kts | 76° |
| 2026-05-07 19:49 | 38.19859 | -106.34494 | 35319 ft | 504 kts | 76° |
| 2026-05-07 19:49 | 38.21081 | -106.25674 | 35296 ft | 504 kts | 76° |
| 2026-05-07 19:50 | 38.22301 | -106.16829 | 35286 ft | 506 kts | 76° |
| 2026-05-07 19:50 | 38.23515 | -106.07966 | 35295 ft | 505 kts | 77° |
| 2026-05-07 19:51 | 38.24717 | -105.99147 | 35282 ft | 507 kts | 77° |
| 2026-05-07 19:51 | 38.25919 | -105.90275 | 35277 ft | 508 kts | 77° |
| 2026-05-07 19:52 | 38.27124 | -105.81323 | 35260 ft | 507 kts | 77° |
| 2026-05-07 19:52 | 38.28310 | -105.72462 | 35270 ft | 507 kts | 76° |
| 2026-05-07 19:53 | 38.29493 | -105.63573 | 35265 ft | 508 kts | 77° |
| 2026-05-07 19:53 | 38.30673 | -105.54646 | 35288 ft | 509 kts | 76° |
| 2026-05-07 19:54 | 38.31840 | -105.45770 | 35286 ft | 509 kts | 76° |
| 2026-05-07 19:54 | 38.33007 | -105.36839 | 35295 ft | 510 kts | 77° |
| 2026-05-07 19:55 | 38.34175 | -105.27844 | 35281 ft | 509 kts | 77° |
| 2026-05-07 19:55 | 38.35336 | -105.18852 | 35283 ft | 513 kts | 77° |
| 2026-05-07 19:56 | 38.36485 | -105.09894 | 35277 ft | 512 kts | 77° |
| 2026-05-07 19:56 | 38.37626 | -105.00911 | 35274 ft | 511 kts | 77° |
| 2026-05-07 19:57 | 38.38770 | -104.91892 | 35255 ft | 514 kts | 77° |
| 2026-05-07 19:57 | 38.39904 | -104.82884 | 35251 ft | 516 kts | 77° |
| 2026-05-07 19:58 | 38.41038 | -104.73814 | 35218 ft | 516 kts | 77° |
| 2026-05-07 19:58 | 38.42166 | -104.64732 | 35206 ft | 516 kts | 77° |
| 2026-05-07 19:59 | 38.43289 | -104.55640 | 35172 ft | 518 kts | 77° |
| 2026-05-07 19:59 | 38.44402 | -104.46558 | 35164 ft | 517 kts | 77° |
| 2026-05-07 20:00 | 38.45510 | -104.37458 | 35162 ft | 516 kts | 77° |
| 2026-05-07 20:00 | 38.46618 | -104.28305 | 35170 ft | 519 kts | 78° |
| 2026-05-07 20:01 | 38.47708 | -104.19231 | 35158 ft | 518 kts | 78° |
| 2026-05-07 20:01 | 38.48802 | -104.10067 | 35156 ft | 518 kts | 78° |
| 2026-05-07 20:02 | 38.49882 | -104.00955 | 35152 ft | 520 kts | 79° |
| 2026-05-07 20:02 | 38.51265 | -103.91857 | 35138 ft | 519 kts | 74° |
| 2026-05-07 20:03 | 38.52821 | -103.82830 | 35134 ft | 517 kts | 75° |
| 2026-05-07 20:03 | 38.54354 | -103.73792 | 35128 ft | 521 kts | 75° |
| 2026-05-07 20:04 | 38.55869 | -103.64742 | 35131 ft | 520 kts | 75° |
| 2026-05-07 20:04 | 38.57377 | -103.55653 | 35126 ft | 520 kts | 75° |
| 2026-05-07 20:05 | 38.58870 | -103.46588 | 35124 ft | 521 kts | 75° |
| 2026-05-07 20:05 | 38.60350 | -103.37541 | 35129 ft | 521 kts | 75° |
| 2026-05-07 20:06 | 38.61842 | -103.28375 | 35116 ft | 521 kts | 75° |
| 2026-05-07 20:06 | 38.63316 | -103.19260 | 35111 ft | 524 kts | 75° |
| 2026-05-07 20:07 | 38.64788 | -103.10108 | 35107 ft | 522 kts | 75° |
| 2026-05-07 20:07 | 38.66257 | -103.00930 | 35103 ft | 524 kts | 75° |
| 2026-05-07 20:08 | 38.67710 | -102.91801 | 35095 ft | 524 kts | 75° |
| 2026-05-07 20:08 | 38.69163 | -102.82628 | 35096 ft | 526 kts | 75° |
| 2026-05-07 20:09 | 38.70614 | -102.73414 | 35088 ft | 527 kts | 75° |
| 2026-05-07 20:10 | 38.72786 | -102.59521 | 35087 ft | 527 kts | 76° |
| 2026-05-07 20:10 | 38.74220 | -102.50291 | 35092 ft | 527 kts | 76° |
| 2026-05-07 20:11 | 38.75651 | -102.41027 | 35089 ft | 528 kts | 76° |
| 2026-05-07 20:11 | 38.77070 | -102.31795 | 35076 ft | 530 kts | 76° |
| 2026-05-07 20:12 | 38.78501 | -102.22426 | 35065 ft | 530 kts | 77° |
| 2026-05-07 20:12 | 38.79905 | -102.13184 | 35071 ft | 530 kts | 77° |
| 2026-05-07 20:13 | 38.81314 | -102.03860 | 35064 ft | 530 kts | 76° |
| 2026-05-07 20:13 | 38.82714 | -101.94538 | 35059 ft | 532 kts | 77° |
| 2026-05-07 20:14 | 38.84104 | -101.85229 | 35054 ft | 530 kts | 76° |
| 2026-05-07 20:14 | 38.85305 | -101.75779 | 35055 ft | 535 kts | 81° |
| 2026-05-07 20:15 | 38.86166 | -101.66320 | 35049 ft | 534 kts | 81° |
| 2026-05-07 20:15 | 38.87019 | -101.56818 | 35049 ft | 534 kts | 81° |
| 2026-05-07 20:16 | 38.87867 | -101.47298 | 35049 ft | 535 kts | 81° |
| 2026-05-07 20:16 | 38.88709 | -101.37753 | 35049 ft | 537 kts | 81° |
| 2026-05-07 20:17 | 38.89541 | -101.28243 | 35027 ft | 535 kts | 82° |
| 2026-05-07 20:17 | 38.90366 | -101.18720 | 35021 ft | 536 kts | 82° |
| 2026-05-07 20:18 | 38.91189 | -101.09137 | 35016 ft | 537 kts | 82° |
| 2026-05-07 20:18 | 38.92005 | -100.99531 | 35022 ft | 538 kts | 82° |
| 2026-05-07 20:19 | 38.92812 | -100.89948 | 34997 ft | 538 kts | 82° |
| 2026-05-07 20:19 | 38.93611 | -100.80370 | 35003 ft | 540 kts | 82° |
| 2026-05-07 20:20 | 38.94404 | -100.70752 | 35008 ft | 538 kts | 82° |
| 2026-05-07 20:20 | 38.95187 | -100.61169 | 34995 ft | 540 kts | 82° |
| 2026-05-07 20:21 | 38.95964 | -100.51559 | 35003 ft | 539 kts | 82° |
| 2026-05-07 20:21 | 38.96735 | -100.41914 | 35002 ft | 540 kts | 82° |
| 2026-05-07 20:22 | 38.97500 | -100.32252 | 34977 ft | 542 kts | 83° |
| 2026-05-07 20:22 | 38.98257 | -100.22594 | 34968 ft | 542 kts | 83° |
| 2026-05-07 20:23 | 38.99002 | -100.12973 | 34975 ft | 542 kts | 83° |
| 2026-05-07 20:23 | 38.99746 | -100.03259 | 34978 ft | 543 kts | 83° |
| 2026-05-07 20:24 | 39.00485 | -99.93580 | 34965 ft | 544 kts | 83° |
| 2026-05-07 20:24 | 39.01223 | -99.83870 | 34968 ft | 543 kts | 83° |
| 2026-05-07 20:25 | 39.01952 | -99.74185 | 34958 ft | 544 kts | 83° |
| 2026-05-07 20:25 | 39.02672 | -99.64500 | 34957 ft | 545 kts | 83° |
| 2026-05-07 20:26 | 39.03389 | -99.54744 | 34959 ft | 545 kts | 83° |
| 2026-05-07 20:26 | 39.04095 | -99.45012 | 34962 ft | 545 kts | 83° |
| 2026-05-07 20:27 | 39.04797 | -99.35244 | 34963 ft | 546 kts | 83° |
| 2026-05-07 20:27 | 39.05488 | -99.25500 | 34965 ft | 546 kts | 84° |
| 2026-05-07 20:28 | 39.06175 | -99.15694 | 34960 ft | 548 kts | 84° |
| 2026-05-07 20:28 | 39.06852 | -99.05911 | 34950 ft | 547 kts | 84° |
| 2026-05-07 20:29 | 39.07524 | -98.96092 | 34943 ft | 550 kts | 84° |
| 2026-05-07 20:29 | 39.08183 | -98.86330 | 34943 ft | 548 kts | 84° |
| 2026-05-07 20:30 | 39.08843 | -98.76434 | 34944 ft | 550 kts | 84° |
| 2026-05-07 20:30 | 39.09490 | -98.66599 | 34956 ft | 551 kts | 84° |
| 2026-05-07 20:31 | 39.10132 | -98.56714 | 34951 ft | 551 kts | 84° |
| 2026-05-07 20:31 | 39.10764 | -98.46854 | 34950 ft | 550 kts | 84° |
| 2026-05-07 20:32 | 39.11389 | -98.36971 | 34992 ft | 552 kts | 84° |
| 2026-05-07 20:32 | 39.12011 | -98.27008 | 34941 ft | 553 kts | 85° |
| 2026-05-07 20:33 | 39.12620 | -98.17109 | 34955 ft | 553 kts | 85° |
| 2026-05-07 20:33 | 39.13220 | -98.07236 | 34935 ft | 553 kts | 85° |
| 2026-05-07 20:34 | 39.13814 | -97.97307 | 34948 ft | 555 kts | 85° |
| 2026-05-07 20:34 | 39.14402 | -97.87334 | 34949 ft | 556 kts | 85° |
| 2026-05-07 20:35 | 39.14977 | -97.77436 | 34974 ft | 556 kts | 85° |
| 2026-05-07 20:35 | 39.15550 | -97.67432 | 34956 ft | 555 kts | 85° |
| 2026-05-07 20:36 | 39.16112 | -97.57455 | 34970 ft | 557 kts | 85° |
| 2026-05-07 20:36 | 39.16667 | -97.47463 | 34965 ft | 557 kts | 85° |
| 2026-05-07 20:37 | 39.17211 | -97.37515 | 34976 ft | 558 kts | 85° |
| 2026-05-07 20:37 | 39.17750 | -97.27485 | 34955 ft | 559 kts | 85° |
| 2026-05-07 20:38 | 39.18282 | -97.17447 | 34959 ft | 558 kts | 85° |
| 2026-05-07 20:38 | 39.18805 | -97.07406 | 34955 ft | 560 kts | 86° |
| 2026-05-07 20:39 | 39.19319 | -96.97361 | 34970 ft | 560 kts | 86° |
| 2026-05-07 20:39 | 39.19823 | -96.87347 | 34985 ft | 560 kts | 86° |
| 2026-05-07 20:40 | 39.20321 | -96.77281 | 35000 ft | 561 kts | 85° |
| 2026-05-07 20:40 | 39.20811 | -96.67200 | 35002 ft | 560 kts | 86° |
| 2026-05-07 20:41 | 39.21290 | -96.57168 | 35000 ft | 561 kts | 85° |
| 2026-05-07 20:41 | 39.21761 | -96.47112 | 34996 ft | 559 kts | 85° |
| 2026-05-07 20:42 | 39.22227 | -96.37003 | 34996 ft | 562 kts | 85° |
| 2026-05-07 20:42 | 39.22680 | -96.26965 | 34974 ft | 561 kts | 86° |
| 2026-05-07 20:43 | 39.23126 | -96.16891 | 34980 ft | 561 kts | 86° |
| 2026-05-07 20:43 | 39.23564 | -96.06781 | 34981 ft | 561 kts | 86° |
| 2026-05-07 20:44 | 39.23993 | -95.96713 | 34994 ft | 563 kts | 86° |
| 2026-05-07 20:44 | 39.24413 | -95.86628 | 34987 ft | 561 kts | 86° |
| 2026-05-07 20:45 | 39.24828 | -95.76476 | 35011 ft | 562 kts | 86° |
| 2026-05-07 20:45 | 39.25230 | -95.66396 | 35009 ft | 562 kts | 86° |
| 2026-05-07 20:46 | 39.25627 | -95.56236 | 35018 ft | 563 kts | 86° |
| 2026-05-07 20:46 | 39.26012 | -95.46141 | 35014 ft | 563 kts | 86° |
| 2026-05-07 20:47 | 39.26391 | -95.35989 | 35005 ft | 563 kts | 85° |
| 2026-05-07 20:47 | 39.26758 | -95.25932 | 34992 ft | 563 kts | 86° |
| 2026-05-07 20:48 | 39.27118 | -95.15807 | 34999 ft | 565 kts | 86° |
| 2026-05-07 20:48 | 39.27471 | -95.05652 | 34998 ft | 564 kts | 86° |
| 2026-05-07 20:49 | 39.27815 | -94.95480 | 35008 ft | 564 kts | 86° |
| 2026-05-07 20:49 | 39.28151 | -94.85304 | 35021 ft | 566 kts | 86° |
| 2026-05-07 20:50 | 39.28528 | -94.75163 | 35019 ft | 564 kts | 82° |
| 2026-05-07 20:50 | 39.30248 | -94.65308 | 35024 ft | 561 kts | 69° |
| 2026-05-07 20:51 | 39.32536 | -94.55628 | 35023 ft | 562 kts | 69° |
| 2026-05-07 20:51 | 39.34790 | -94.45936 | 35032 ft | 560 kts | 69° |
| 2026-05-07 20:52 | 39.37000 | -94.36305 | 35033 ft | 563 kts | 70° |
| 2026-05-07 20:52 | 39.39216 | -94.26545 | 35012 ft | 562 kts | 71° |
| 2026-05-07 20:53 | 39.41414 | -94.16788 | 35005 ft | 563 kts | 70° |
| 2026-05-07 20:53 | 39.43597 | -94.07040 | 34987 ft | 562 kts | 70° |
| 2026-05-07 20:54 | 39.45760 | -93.97329 | 34984 ft | 565 kts | 71° |
| 2026-05-07 20:54 | 39.47935 | -93.87513 | 34983 ft | 562 kts | 70° |
| 2026-05-07 20:55 | 39.50099 | -93.77702 | 34995 ft | 565 kts | 70° |
| 2026-05-07 20:55 | 39.52245 | -93.67930 | 34997 ft | 564 kts | 71° |
| 2026-05-07 20:56 | 39.54399 | -93.58070 | 34990 ft | 565 kts | 71° |
| 2026-05-07 20:56 | 39.56537 | -93.48244 | 34995 ft | 566 kts | 71° |
| 2026-05-07 20:57 | 39.58655 | -93.38462 | 34995 ft | 563 kts | 70° |
| 2026-05-07 20:57 | 39.60789 | -93.28567 | 34987 ft | 566 kts | 71° |
| 2026-05-07 20:58 | 39.62903 | -93.18713 | 34982 ft | 566 kts | 71° |
| 2026-05-07 20:58 | 39.65013 | -93.08833 | 34997 ft | 566 kts | 71° |
| 2026-05-07 20:59 | 39.67128 | -92.98890 | 35005 ft | 569 kts | 71° |
| 2026-05-07 20:59 | 39.69229 | -92.88963 | 35016 ft | 568 kts | 71° |
| 2026-05-07 21:00 | 39.71311 | -92.79082 | 35013 ft | 567 kts | 71° |
| 2026-05-07 21:00 | 39.73389 | -92.69173 | 35014 ft | 568 kts | 71° |
| 2026-05-07 21:01 | 39.75469 | -92.59208 | 35013 ft | 568 kts | 71° |
| 2026-05-07 21:01 | 39.77536 | -92.49255 | 35011 ft | 568 kts | 71° |
| 2026-05-07 21:02 | 39.79587 | -92.39339 | 35016 ft | 568 kts | 71° |
| 2026-05-07 21:02 | 39.81649 | -92.29320 | 34999 ft | 569 kts | 72° |
| 2026-05-07 21:03 | 39.83686 | -92.19373 | 35001 ft | 570 kts | 72° |
| 2026-05-07 21:03 | 39.85728 | -92.09359 | 34995 ft | 570 kts | 72° |
| 2026-05-07 21:04 | 39.87755 | -91.99363 | 34991 ft | 569 kts | 71° |
| 2026-05-07 21:04 | 39.89781 | -91.89329 | 34998 ft | 571 kts | 72° |
| 2026-05-07 21:05 | 39.91804 | -91.79260 | 34997 ft | 573 kts | 72° |
| 2026-05-07 21:05 | 39.93807 | -91.69238 | 35169 ft | 571 kts | 71° |
| 2026-05-07 21:05 | 39.94819 | -91.64159 | 35029 ft | 572 kts | 72° |
| 2026-05-07 21:06 | 39.95814 | -91.59145 | 35009 ft | 568 kts | 71° |
| 2026-05-07 21:06 | 39.97793 | -91.49152 | 35016 ft | 572 kts | 72° |
| 2026-05-07 21:07 | 39.99789 | -91.39020 | 35001 ft | 571 kts | 71° |
| 2026-05-07 21:07 | 40.01767 | -91.28925 | 34994 ft | 571 kts | 72° |
| 2026-05-07 21:08 | 40.03728 | -91.18870 | 34991 ft | 574 kts | 72° |
| 2026-05-07 21:08 | 40.05705 | -91.08687 | 34997 ft | 574 kts | 72° |
| 2026-05-07 21:09 | 40.07655 | -90.98583 | 34993 ft | 574 kts | 72° |
| 2026-05-07 21:09 | 40.09613 | -90.88389 | 34989 ft | 575 kts | 72° |
| 2026-05-07 21:09 | 40.10595 | -90.83260 | 35098 ft | 583 kts | 72° |
| 2026-05-07 21:10 | 40.11578 | -90.78108 | 35574 ft | 582 kts | 73° |
| 2026-05-07 21:10 | 40.12557 | -90.72956 | 36190 ft | 576 kts | 73° |
| 2026-05-07 21:10 | 40.13520 | -90.67873 | 36673 ft | 573 kts | 73° |
| 2026-05-07 21:10 | 40.14477 | -90.62820 | 36946 ft | 576 kts | 72° |
| 2026-05-07 21:11 | 40.15442 | -90.57714 | 36992 ft | 580 kts | 72° |
| 2026-05-07 21:11 | 40.18332 | -90.42327 | 37007 ft | 579 kts | 72° |
| 2026-05-07 21:12 | 40.20262 | -90.31979 | 36994 ft | 579 kts | 73° |
| 2026-05-07 21:12 | 40.22174 | -90.21683 | 36987 ft | 579 kts | 73° |
| 2026-05-07 21:13 | 40.24066 | -90.11433 | 36998 ft | 579 kts | 73° |
| 2026-05-07 21:13 | 40.25957 | -90.01135 | 36993 ft | 579 kts | 73° |
| 2026-05-07 21:14 | 40.27839 | -89.90839 | 36998 ft | 580 kts | 73° |
| 2026-05-07 21:14 | 40.29711 | -89.80534 | 36997 ft | 579 kts | 73° |
| 2026-05-07 21:15 | 40.31573 | -89.70229 | 37002 ft | 581 kts | 73° |
| 2026-05-07 21:15 | 40.33430 | -89.59895 | 37004 ft | 580 kts | 73° |
| 2026-05-07 21:16 | 40.35273 | -89.49580 | 37005 ft | 579 kts | 73° |
| 2026-05-07 21:16 | 40.37116 | -89.39216 | 37005 ft | 579 kts | 73° |
| 2026-05-07 21:17 | 40.38943 | -89.28873 | 36995 ft | 581 kts | 74° |
| 2026-05-07 21:17 | 40.40763 | -89.18519 | 37003 ft | 580 kts | 74° |
| 2026-05-07 21:18 | 40.42578 | -89.08135 | 37010 ft | 580 kts | 74° |
| 2026-05-07 21:18 | 40.44374 | -88.97796 | 37018 ft | 579 kts | 74° |
| 2026-05-07 21:19 | 40.46161 | -88.87460 | 37018 ft | 580 kts | 74° |
| 2026-05-07 21:19 | 40.47943 | -88.77088 | 37027 ft | 579 kts | 74° |
| 2026-05-07 21:20 | 40.49714 | -88.66718 | 37006 ft | 579 kts | 74° |
| 2026-05-07 21:20 | 40.51480 | -88.56323 | 37014 ft | 580 kts | 74° |
| 2026-05-07 21:21 | 40.53229 | -88.45964 | 37008 ft | 580 kts | 74° |
| 2026-05-07 21:21 | 40.54972 | -88.35580 | 37006 ft | 579 kts | 74° |
| 2026-05-07 21:22 | 40.56703 | -88.25210 | 37005 ft | 579 kts | 75° |
| 2026-05-07 21:22 | 40.57822 | -88.14682 | 37005 ft | 583 kts | 88° |
| 2026-05-07 21:23 | 40.57776 | -88.03994 | 37009 ft | 582 kts | 91° |
| 2026-05-07 21:23 | 40.57623 | -87.93280 | 37022 ft | 583 kts | 91° |
| 2026-05-07 21:24 | 40.57434 | -87.82604 | 37007 ft | 581 kts | 91° |
| 2026-05-07 21:24 | 40.57220 | -87.71914 | 37017 ft | 582 kts | 91° |
| 2026-05-07 21:25 | 40.56991 | -87.61395 | 37021 ft | 583 kts | 91° |
| 2026-05-07 21:25 | 40.56744 | -87.50714 | 37015 ft | 581 kts | 91° |
| 2026-05-07 21:26 | 40.56484 | -87.40030 | 37024 ft | 583 kts | 91° |
| 2026-05-07 21:26 | 40.56212 | -87.29344 | 37011 ft | 583 kts | 92° |
| 2026-05-07 21:27 | 40.55928 | -87.18634 | 37008 ft | 582 kts | 92° |
| 2026-05-07 21:27 | 40.55816 | -87.07956 | 37007 ft | 582 kts | 84° |
| 2026-05-07 21:28 | 40.57258 | -86.97507 | 37016 ft | 579 kts | 73° |
| 2026-05-07 21:28 | 40.59150 | -86.87157 | 37008 ft | 578 kts | 74° |
| 2026-05-07 21:29 | 40.61022 | -86.76840 | 37018 ft | 579 kts | 74° |
| 2026-05-07 21:29 | 40.62881 | -86.66493 | 37021 ft | 578 kts | 74° |
| 2026-05-07 21:30 | 40.64732 | -86.56117 | 37023 ft | 580 kts | 74° |
| 2026-05-07 21:30 | 40.66569 | -86.45735 | 37035 ft | 579 kts | 74° |
| 2026-05-07 21:31 | 40.68389 | -86.35391 | 37030 ft | 579 kts | 74° |
| 2026-05-07 21:31 | 40.70207 | -86.24997 | 37022 ft | 579 kts | 75° |
| 2026-05-07 21:32 | 40.72019 | -86.14577 | 37011 ft | 579 kts | 75° |
| 2026-05-07 21:32 | 40.73817 | -86.04170 | 37026 ft | 580 kts | 75° |
| 2026-05-07 21:33 | 40.75604 | -85.93771 | 37019 ft | 579 kts | 75° |
| 2026-05-07 21:33 | 40.77379 | -85.83377 | 37016 ft | 578 kts | 75° |
| 2026-05-07 21:34 | 40.79145 | -85.72982 | 37012 ft | 579 kts | 75° |
| 2026-05-07 21:34 | 40.80902 | -85.62575 | 37024 ft | 579 kts | 75° |
| 2026-05-07 21:35 | 40.82644 | -85.52195 | 37034 ft | 579 kts | 76° |
| 2026-05-07 21:35 | 40.84380 | -85.41786 | 37037 ft | 578 kts | 76° |
| 2026-05-07 21:36 | 40.86116 | -85.31322 | 37027 ft | 578 kts | 76° |
| 2026-05-07 21:36 | 40.87934 | -85.20961 | 37021 ft | 576 kts | 72° |
| 2026-05-07 21:37 | 40.90243 | -85.10751 | 37026 ft | 576 kts | 71° |
| 2026-05-07 21:37 | 40.92529 | -85.00597 | 37024 ft | 574 kts | 71° |
| 2026-05-07 21:38 | 40.94799 | -84.90385 | 37016 ft | 576 kts | 72° |
| 2026-05-07 21:38 | 40.97052 | -84.80143 | 37011 ft | 576 kts | 72° |
| 2026-05-07 21:39 | 40.99271 | -84.69980 | 37013 ft | 576 kts | 72° |
| 2026-05-07 21:39 | 41.01495 | -84.59726 | 37010 ft | 576 kts | 72° |
| 2026-05-07 21:40 | 41.03710 | -84.49456 | 37000 ft | 576 kts | 72° |
| 2026-05-07 21:40 | 41.05902 | -84.39242 | 36997 ft | 578 kts | 72° |
| 2026-05-07 21:41 | 41.08098 | -84.28953 | 36979 ft | 578 kts | 73° |
| 2026-05-07 21:41 | 41.10285 | -84.18652 | 36989 ft | 578 kts | 73° |
| 2026-05-07 21:42 | 41.12470 | -84.08312 | 36993 ft | 577 kts | 73° |
| 2026-05-07 21:42 | 41.14638 | -83.97999 | 36985 ft | 578 kts | 73° |
| 2026-05-07 21:43 | 41.16795 | -83.87685 | 36992 ft | 577 kts | 73° |
| 2026-05-07 21:43 | 41.18936 | -83.77403 | 36988 ft | 577 kts | 73° |
| 2026-05-07 21:44 | 41.21079 | -83.67059 | 36983 ft | 578 kts | 73° |
| 2026-05-07 21:44 | 41.23203 | -83.56754 | 36977 ft | 577 kts | 73° |
| 2026-05-07 21:45 | 41.25333 | -83.46365 | 36979 ft | 577 kts | 73° |
| 2026-05-07 21:45 | 41.27437 | -83.36057 | 36982 ft | 577 kts | 73° |
| 2026-05-07 21:46 | 41.29544 | -83.25681 | 36955 ft | 577 kts | 74° |
| 2026-05-07 21:46 | 41.31627 | -83.15368 | 36953 ft | 577 kts | 74° |
| 2026-05-07 21:47 | 41.33705 | -83.05028 | 36957 ft | 577 kts | 74° |
| 2026-05-07 21:47 | 41.35780 | -82.94653 | 36961 ft | 578 kts | 74° |
| 2026-05-07 21:48 | 41.37848 | -82.84256 | 36961 ft | 576 kts | 74° |
| 2026-05-07 21:48 | 41.39896 | -82.73906 | 36964 ft | 576 kts | 74° |
| 2026-05-07 21:49 | 41.41935 | -82.63549 | 36958 ft | 577 kts | 74° |
| 2026-05-07 21:49 | 41.43956 | -82.53231 | 36956 ft | 577 kts | 74° |
| 2026-05-07 21:50 | 41.45988 | -82.42802 | 36958 ft | 577 kts | 74° |
| 2026-05-07 21:50 | 41.47998 | -82.32438 | 36946 ft | 576 kts | 75° |
| 2026-05-07 21:51 | 41.50006 | -82.22023 | 36948 ft | 576 kts | 75° |
| 2026-05-07 21:51 | 41.51999 | -82.11631 | 36954 ft | 576 kts | 75° |
| 2026-05-07 21:52 | 41.53981 | -82.01241 | 36947 ft | 577 kts | 75° |
| 2026-05-07 21:52 | 41.55954 | -81.90844 | 36954 ft | 577 kts | 75° |
| 2026-05-07 21:53 | 41.57923 | -81.80410 | 36956 ft | 575 kts | 75° |
| 2026-05-07 21:53 | 41.59871 | -81.70033 | 36961 ft | 577 kts | 75° |
| 2026-05-07 21:54 | 41.61821 | -81.59587 | 36964 ft | 575 kts | 75° |
| 2026-05-07 21:54 | 41.63760 | -81.49149 | 36961 ft | 576 kts | 75° |
| 2026-05-07 21:55 | 41.65676 | -81.38774 | 36969 ft | 576 kts | 75° |
| 2026-05-07 21:55 | 41.67590 | -81.28351 | 36947 ft | 575 kts | 76° |
| 2026-05-07 21:56 | 41.69499 | -81.17902 | 36943 ft | 575 kts | 76° |
| 2026-05-07 21:56 | 41.71396 | -81.07457 | 36939 ft | 574 kts | 76° |
| 2026-05-07 21:57 | 41.73281 | -80.97021 | 36942 ft | 574 kts | 76° |
| 2026-05-07 21:57 | 41.75165 | -80.86531 | 36934 ft | 575 kts | 76° |
| 2026-05-07 21:58 | 41.77024 | -80.76126 | 36948 ft | 575 kts | 76° |
| 2026-05-07 21:58 | 41.78885 | -80.65646 | 36953 ft | 575 kts | 76° |
| 2026-05-07 21:59 | 41.80771 | -80.55221 | 36940 ft | 574 kts | 72° |
| 2026-05-07 21:59 | 41.83521 | -80.45122 | 36935 ft | 575 kts | 67° |
| 2026-05-07 22:00 | 41.86348 | -80.35074 | 36941 ft | 573 kts | 67° |
| 2026-05-07 22:00 | 41.89121 | -80.25012 | 36933 ft | 573 kts | 69° |
| 2026-05-07 22:01 | 41.91860 | -80.14937 | 36924 ft | 574 kts | 69° |
| 2026-05-07 22:01 | 41.94597 | -80.04768 | 36928 ft | 573 kts | 69° |
| 2026-05-07 22:02 | 41.97305 | -79.94630 | 36924 ft | 575 kts | 69° |
| 2026-05-07 22:02 | 41.99995 | -79.84502 | 36904 ft | 574 kts | 69° |
| 2026-05-07 22:03 | 42.02684 | -79.74321 | 36914 ft | 575 kts | 69° |
| 2026-05-07 22:03 | 42.05349 | -79.64188 | 36911 ft | 575 kts | 69° |
| 2026-05-07 22:04 | 42.08005 | -79.54038 | 36911 ft | 572 kts | 69° |
| 2026-05-07 22:04 | 42.10653 | -79.43874 | 36914 ft | 575 kts | 69° |
| 2026-05-07 22:05 | 42.13289 | -79.33713 | 36922 ft | 573 kts | 70° |
| 2026-05-07 22:05 | 42.15883 | -79.23494 | 36905 ft | 574 kts | 74° |
| 2026-05-07 22:06 | 42.17034 | -79.12918 | 36915 ft | 571 kts | 92° |
| 2026-05-07 22:06 | 42.16053 | -79.02381 | 36912 ft | 564 kts | 110° |
| 2026-05-07 22:07 | 42.13732 | -78.92281 | 36897 ft | 560 kts | 113° |
| 2026-05-07 22:07 | 42.11300 | -78.82297 | 36889 ft | 561 kts | 113° |
| 2026-05-07 22:08 | 42.08815 | -78.72270 | 36883 ft | 560 kts | 114° |
| 2026-05-07 22:08 | 42.06330 | -78.62354 | 36882 ft | 559 kts | 114° |
| 2026-05-07 22:09 | 42.03798 | -78.52343 | 36884 ft | 561 kts | 114° |
| 2026-05-07 22:09 | 42.01298 | -78.42497 | 36888 ft | 543 kts | 115° |
| 2026-05-07 22:10 | 42.00081 | -78.37714 | 36830 ft | 529 kts | 114° |
| 2026-05-07 22:10 | 41.98908 | -78.33118 | 36795 ft | 514 kts | 116° |
| 2026-05-07 22:10 | 41.96542 | -78.23935 | 36622 ft | 526 kts | 116° |
| 2026-05-07 22:11 | 41.95331 | -78.19259 | 36330 ft | 538 kts | 116° |
| 2026-05-07 22:11 | 41.94075 | -78.14415 | 36188 ft | 546 kts | 116° |
| 2026-05-07 22:11 | 41.92842 | -78.09639 | 36160 ft | 532 kts | 116° |
| 2026-05-07 22:11 | 41.91656 | -78.05042 | 36144 ft | 516 kts | 116° |
| 2026-05-07 22:12 | 41.90481 | -78.00499 | 36136 ft | 500 kts | 116° |
| 2026-05-07 22:12 | 41.89351 | -77.96143 | 36116 ft | 484 kts | 116° |
| 2026-05-07 22:12 | 41.88260 | -77.91952 | 36099 ft | 469 kts | 117° |
| 2026-05-07 22:12 | 41.87185 | -77.87834 | 35864 ft | 461 kts | 117° |
| 2026-05-07 22:13 | 41.86123 | -77.83796 | 35360 ft | 460 kts | 118° |
| 2026-05-07 22:13 | 41.85035 | -77.79671 | 35137 ft | 470 kts | 118° |
| 2026-05-07 22:13 | 41.83922 | -77.75472 | 34976 ft | 487 kts | 117° |
| 2026-05-07 22:13 | 41.82761 | -77.71088 | 34802 ft | 505 kts | 117° |
| 2026-05-07 22:14 | 41.81564 | -77.66567 | 34626 ft | 523 kts | 117° |
| 2026-05-07 22:14 | 41.80313 | -77.61843 | 34429 ft | 542 kts | 116° |
| 2026-05-07 22:14 | 41.79039 | -77.57031 | 34235 ft | 551 kts | 116° |
| 2026-05-07 22:14 | 41.77758 | -77.52183 | 34025 ft | 551 kts | 116° |
| 2026-05-07 22:15 | 41.76470 | -77.47317 | 33808 ft | 550 kts | 116° |
| 2026-05-07 22:15 | 41.75191 | -77.42501 | 33594 ft | 552 kts | 117° |
| 2026-05-07 22:15 | 41.73881 | -77.37586 | 33361 ft | 554 kts | 116° |
| 2026-05-07 22:15 | 41.72594 | -77.32765 | 33122 ft | 553 kts | 117° |
| 2026-05-07 22:16 | 41.71296 | -77.27908 | 32868 ft | 551 kts | 117° |
| 2026-05-07 22:16 | 41.69990 | -77.23039 | 32611 ft | 553 kts | 117° |
| 2026-05-07 22:16 | 41.68689 | -77.18201 | 32355 ft | 555 kts | 117° |
| 2026-05-07 22:16 | 41.67370 | -77.13301 | 32095 ft | 553 kts | 117° |
| 2026-05-07 22:17 | 41.66061 | -77.08453 | 31842 ft | 552 kts | 117° |
| 2026-05-07 22:17 | 41.64762 | -77.03647 | 31592 ft | 552 kts | 117° |
| 2026-05-07 22:17 | 41.63450 | -76.98812 | 31324 ft | 555 kts | 118° |
| 2026-05-07 22:17 | 41.62127 | -76.93942 | 31073 ft | 557 kts | 118° |
| 2026-05-07 22:18 | 41.60787 | -76.89018 | 30836 ft | 554 kts | 118° |
| 2026-05-07 22:18 | 41.58139 | -76.79323 | 30312 ft | 558 kts | 118° |
| 2026-05-07 22:18 | 41.56800 | -76.74432 | 30056 ft | 558 kts | 118° |
| 2026-05-07 22:19 | 41.55463 | -76.69556 | 29812 ft | 558 kts | 118° |
| 2026-05-07 22:19 | 41.54136 | -76.64723 | 29526 ft | 555 kts | 118° |
| 2026-05-07 22:19 | 41.52797 | -76.59862 | 29283 ft | 558 kts | 118° |
| 2026-05-07 22:19 | 41.51459 | -76.55017 | 29025 ft | 559 kts | 118° |
| 2026-05-07 22:20 | 41.50109 | -76.50128 | 28767 ft | 556 kts | 118° |
| 2026-05-07 22:20 | 41.48772 | -76.45291 | 28516 ft | 557 kts | 118° |
| 2026-05-07 22:20 | 41.47409 | -76.40395 | 28259 ft | 568 kts | 118° |
| 2026-05-07 22:20 | 41.46029 | -76.35432 | 28003 ft | 567 kts | 117° |
| 2026-05-07 22:21 | 41.44648 | -76.30456 | 27703 ft | 561 kts | 119° |
| 2026-05-07 22:21 | 41.43291 | -76.25580 | 27423 ft | 556 kts | 118° |
| 2026-05-07 22:21 | 41.41937 | -76.20735 | 27148 ft | 555 kts | 119° |
| 2026-05-07 22:21 | 41.40600 | -76.15958 | 26885 ft | 552 kts | 119° |
| 2026-05-07 22:22 | 41.39250 | -76.11142 | 26602 ft | 548 kts | 118° |
| 2026-05-07 22:22 | 41.37922 | -76.06417 | 26329 ft | 546 kts | 118° |
| 2026-05-07 22:22 | 41.36588 | -76.01679 | 26056 ft | 544 kts | 118° |
| 2026-05-07 22:22 | 41.35257 | -75.96961 | 25781 ft | 541 kts | 118° |
| 2026-05-07 22:23 | 41.33914 | -75.92214 | 25505 ft | 542 kts | 119° |
| 2026-05-07 22:23 | 41.32584 | -75.87519 | 25243 ft | 538 kts | 118° |
| 2026-05-07 22:23 | 41.31265 | -75.82861 | 24964 ft | 533 kts | 118° |
| 2026-05-07 22:23 | 41.29962 | -75.78281 | 24700 ft | 533 kts | 118° |
| 2026-05-07 22:24 | 41.28635 | -75.73623 | 24447 ft | 532 kts | 118° |
| 2026-05-07 22:24 | 41.27340 | -75.69080 | 24164 ft | 526 kts | 118° |
| 2026-05-07 22:24 | 41.25952 | -75.64580 | 23908 ft | 520 kts | 122° |
| 2026-05-07 22:24 | 41.24461 | -75.60166 | 23641 ft | 518 kts | 122° |
| 2026-05-07 22:25 | 41.22971 | -75.55776 | 23379 ft | 516 kts | 122° |
| 2026-05-07 22:25 | 41.21509 | -75.51463 | 23108 ft | 514 kts | 122° |
| 2026-05-07 22:25 | 41.20039 | -75.47117 | 22910 ft | 508 kts | 122° |
| 2026-05-07 22:25 | 41.18605 | -75.42866 | 22896 ft | 493 kts | 122° |
| 2026-05-07 22:26 | 41.17233 | -75.38792 | 22898 ft | 478 kts | 122° |
| 2026-05-07 22:26 | 41.15869 | -75.34766 | 22909 ft | 480 kts | 123° |
| 2026-05-07 22:26 | 41.14478 | -75.30666 | 22871 ft | 478 kts | 123° |
| 2026-05-07 22:26 | 41.13100 | -75.26600 | 22876 ft | 479 kts | 123° |
| 2026-05-07 22:27 | 41.11725 | -75.22543 | 22856 ft | 478 kts | 123° |
| 2026-05-07 22:27 | 41.10343 | -75.18470 | 22876 ft | 479 kts | 123° |
| 2026-05-07 22:27 | 41.08982 | -75.14461 | 22855 ft | 477 kts | 123° |
| 2026-05-07 22:27 | 41.07606 | -75.10413 | 22864 ft | 479 kts | 123° |
| 2026-05-07 22:28 | 41.06242 | -75.06403 | 22854 ft | 477 kts | 123° |
| 2026-05-07 22:28 | 41.04875 | -75.02383 | 22862 ft | 474 kts | 123° |
| 2026-05-07 22:28 | 41.03507 | -74.98377 | 22853 ft | 480 kts | 123° |
| 2026-05-07 22:28 | 41.02112 | -74.94297 | 22858 ft | 479 kts | 123° |
| 2026-05-07 22:29 | 41.00748 | -74.90299 | 22846 ft | 479 kts | 123° |
| 2026-05-07 22:29 | 40.99618 | -74.86065 | 22859 ft | 491 kts | 111° |
| 2026-05-07 22:29 | 40.98940 | -74.81583 | 22856 ft | 496 kts | 105° |
| 2026-05-07 22:29 | 40.98404 | -74.77016 | 22874 ft | 500 kts | 105° |
| 2026-05-07 22:30 | 40.97886 | -74.72487 | 22626 ft | 490 kts | 105° |
| 2026-05-07 22:30 | 40.97373 | -74.68045 | 22102 ft | 486 kts | 105° |
| 2026-05-07 22:30 | 40.96857 | -74.63627 | 21459 ft | 486 kts | 104° |
| 2026-05-07 22:30 | 40.96338 | -74.59199 | 20953 ft | 481 kts | 104° |
| 2026-05-07 22:31 | 40.95824 | -74.54829 | 20560 ft | 473 kts | 104° |
| 2026-05-07 22:31 | 40.95317 | -74.50535 | 20112 ft | 468 kts | 104° |
| 2026-05-07 22:31 | 40.94812 | -74.46285 | 19647 ft | 463 kts | 104° |
| 2026-05-07 22:31 | 40.94315 | -74.42127 | 19212 ft | 457 kts | 103° |
| 2026-05-07 22:32 | 40.93815 | -74.37952 | 18918 ft | 450 kts | 103° |
| 2026-05-07 22:32 | 40.93315 | -74.33813 | 18901 ft | 457 kts | 104° |
| 2026-05-07 22:32 | 40.92811 | -74.29635 | 18890 ft | 455 kts | 104° |
| 2026-05-07 22:32 | 40.92313 | -74.25528 | 18879 ft | 455 kts | 104° |
| 2026-05-07 22:33 | 40.91805 | -74.21349 | 18883 ft | 456 kts | 104° |
| 2026-05-07 22:33 | 40.91294 | -74.17186 | 18877 ft | 449 kts | 105° |
| 2026-05-07 22:33 | 40.90524 | -74.13316 | 18876 ft | 423 kts | 117° |
| 2026-05-07 22:33 | 40.89330 | -74.09842 | 18874 ft | 396 kts | 129° |
| 2026-05-07 22:34 | 40.87954 | -74.06813 | 18869 ft | 378 kts | 131° |
| 2026-05-07 22:34 | 40.86560 | -74.03847 | 18800 ft | 375 kts | 132° |
| 2026-05-07 22:34 | 40.85149 | -74.00898 | 18408 ft | 379 kts | 131° |
| 2026-05-07 22:34 | 40.83733 | -73.97964 | 17924 ft | 377 kts | 132° |
| 2026-05-07 22:35 | 40.82321 | -73.95044 | 17473 ft | 369 kts | 132° |
| 2026-05-07 22:35 | 40.80942 | -73.92207 | 16992 ft | 365 kts | 131° |
| 2026-05-07 22:35 | 40.79557 | -73.89366 | 16498 ft | 362 kts | 132° |
| 2026-05-07 22:35 | 40.78189 | -73.86572 | 15948 ft | 362 kts | 131° |
| 2026-05-07 22:36 | 40.76813 | -73.83804 | 15347 ft | 362 kts | 133° |
| 2026-05-07 22:36 | 40.75406 | -73.80995 | 14703 ft | 362 kts | 132° |
| 2026-05-07 22:36 | 40.74029 | -73.78243 | 14093 ft | 357 kts | 131° |
| 2026-05-07 22:36 | 40.72819 | -73.75406 | 13490 ft | 358 kts | 123° |
| 2026-05-07 22:37 | 40.71993 | -73.72255 | 12962 ft | 360 kts | 109° |
| 2026-05-07 22:37 | 40.71459 | -73.69079 | 12504 ft | 352 kts | 107° |
| 2026-05-07 22:37 | 40.70951 | -73.65936 | 12068 ft | 344 kts | 107° |
| 2026-05-07 22:37 | 40.70444 | -73.62847 | 11634 ft | 340 kts | 107° |
| 2026-05-07 22:38 | 40.69935 | -73.59783 | 11197 ft | 339 kts | 107° |
| 2026-05-07 22:38 | 40.69422 | -73.56744 | 10757 ft | 337 kts | 107° |
| 2026-05-07 22:38 | 40.68733 | -73.53851 | 10321 ft | 327 kts | 120° |
| 2026-05-07 22:38 | 40.67727 | -73.51151 | 9876 ft | 326 kts | 123° |
| 2026-05-07 22:39 | 40.66690 | -73.48504 | 9418 ft | 324 kts | 123° |
| 2026-05-07 22:39 | 40.65630 | -73.45872 | 8948 ft | 318 kts | 124° |
| 2026-05-07 22:39 | 40.64491 | -73.43392 | 8485 ft | 312 kts | 127° |
| 2026-05-07 22:39 | 40.63314 | -73.40997 | 8017 ft | 307 kts | 126° |
| 2026-05-07 22:40 | 40.62127 | -73.38672 | 7484 ft | 307 kts | 127° |
| 2026-05-07 22:40 | 40.60904 | -73.36358 | 6918 ft | 305 kts | 127° |
| 2026-05-07 22:40 | 40.59674 | -73.34102 | 6351 ft | 303 kts | 127° |
| 2026-05-07 22:40 | 40.58422 | -73.31862 | 5819 ft | 301 kts | 127° |
| 2026-05-07 22:41 | 40.57304 | -73.29534 | 5297 ft | 303 kts | 110° |
| 2026-05-07 22:41 | 40.56818 | -73.26886 | 5015 ft | 289 kts | 98° |
| 2026-05-07 22:41 | 40.56364 | -73.24327 | 4768 ft | 278 kts | 114° |
| 2026-05-07 22:41 | 40.55235 | -73.22349 | 4563 ft | 270 kts | 143° |
| 2026-05-07 22:42 | 40.53551 | -73.21306 | 4299 ft | 263 kts | 173° |
| 2026-05-07 22:42 | 40.51776 | -73.21454 | 4077 ft | 258 kts | 204° |
| 2026-05-07 22:42 | 40.50286 | -73.22761 | 4032 ft | 253 kts | 234° |
| 2026-05-07 22:42 | 40.49527 | -73.24796 | 4022 ft | 246 kts | 264° |
| 2026-05-07 22:43 | 40.49573 | -73.26992 | 4029 ft | 241 kts | 281° |
| 2026-05-07 22:43 | 40.49840 | -73.29142 | 4031 ft | 229 kts | 282° |
| 2026-05-07 22:43 | 40.50099 | -73.31162 | 4029 ft | 220 kts | 283° |
| 2026-05-07 22:43 | 40.50355 | -73.33174 | 4031 ft | 216 kts | 283° |
| 2026-05-07 22:44 | 40.50597 | -73.35081 | 3849 ft | 207 kts | 283° |
| 2026-05-07 22:44 | 40.50821 | -73.36919 | 3666 ft | 199 kts | 283° |
| 2026-05-07 22:44 | 40.51038 | -73.38709 | 3503 ft | 192 kts | 283° |
| 2026-05-07 22:44 | 40.51299 | -73.40397 | 3333 ft | 188 kts | 288° |
| 2026-05-07 22:45 | 40.51635 | -73.42107 | 3157 ft | 193 kts | 288° |
| 2026-05-07 22:45 | 40.51962 | -73.43802 | 3037 ft | 185 kts | 288° |
| 2026-05-07 22:45 | 40.52266 | -73.45407 | 3030 ft | 179 kts | 288° |
| 2026-05-07 22:45 | 40.52561 | -73.47006 | 3020 ft | 179 kts | 284° |
| 2026-05-07 22:46 | 40.52645 | -73.48651 | 3032 ft | 181 kts | 276° |
| 2026-05-07 22:46 | 40.52819 | -73.50279 | 3033 ft | 178 kts | 292° |
| 2026-05-07 22:46 | 40.53338 | -73.51794 | 3036 ft | 178 kts | 302° |
| 2026-05-07 22:46 | 40.53964 | -73.53203 | 3037 ft | 174 kts | 304° |
| 2026-05-07 22:47 | 40.54588 | -73.54555 | 2914 ft | 172 kts | 304° |
| 2026-05-07 22:47 | 40.55198 | -73.55878 | 2747 ft | 165 kts | 304° |
| 2026-05-07 22:47 | 40.55793 | -73.57169 | 2623 ft | 164 kts | 304° |
| 2026-05-07 22:47 | 40.56374 | -73.58437 | 2490 ft | 156 kts | 304° |
| 2026-05-07 22:48 | 40.56933 | -73.59656 | 2368 ft | 154 kts | 304° |
| 2026-05-07 22:48 | 40.57486 | -73.60860 | 2239 ft | 154 kts | 304° |
| 2026-05-07 22:48 | 40.58096 | -73.62148 | 2141 ft | 185 kts | 306° |
| 2026-05-07 22:48 | 40.58780 | -73.63577 | 2074 ft | 179 kts | 303° |
| 2026-05-07 22:49 | 40.59349 | -73.64954 | 2003 ft | 168 kts | 303° |
| 2026-05-07 22:49 | 40.59945 | -73.66254 | 1771 ft | 159 kts | 304° |
| 2026-05-07 22:49 | 40.60503 | -73.67468 | 1567 ft | 149 kts | 303° |
| 2026-05-07 22:49 | 40.61014 | -73.68588 | 1366 ft | 137 kts | 304° |
| 2026-05-07 22:50 | 40.61506 | -73.69662 | 1186 ft | 136 kts | 303° |
| 2026-05-07 22:50 | 40.62001 | -73.70736 | 988 ft | 135 kts | 303° |
| 2026-05-07 22:50 | 40.62477 | -73.71806 | 804 ft | 136 kts | 303° |
| 2026-05-07 22:50 | 40.62969 | -73.72868 | 590 ft | 135 kts | 303° |
| 2026-05-07 22:51 | 40.63459 | -73.73938 | 416 ft | 136 kts | 303° |
| 2026-05-07 22:51 | 40.63948 | -73.75010 | 241 ft | 136 kts | 302° |
| 2026-05-07 22:51 | 40.64435 | -73.76079 | 71 ft | 130 kts | 302° |
| 2026-05-07 22:51 | 40.64861 | -73.77004 | 25 ft | 97 kts | 301° |
| 2026-05-07 22:52 | 40.65131 | -73.77602 | 23 ft | 52 kts | 301° |
| 2026-05-07 22:52 | 40.65257 | -73.77875 | 23 ft | 26 kts | 300° |
| 2026-05-07 22:52 | 40.65310 | -73.78074 | 23 ft | 20 kts | 271° |
| 2026-05-07 22:52 | 40.65310 | -73.78181 | 23 ft | 1 kts | 270° |
| 2026-05-07 22:53 | 40.65310 | -73.78197 | 23 ft | 2 kts | 270° |
| 2026-05-07 22:53 | 40.65311 | -73.78230 | 23 ft | 5 kts | 272° |
| 2026-05-07 22:53 | 40.65322 | -73.78296 | 23 ft | 9 kts | 289° |
| 2026-05-07 22:53 | 40.65353 | -73.78384 | 23 ft | 12 kts | 287° |
| 2026-05-07 22:54 | 40.65339 | -73.78503 | 23 ft | 13 kts | 246° |
| 2026-05-07 22:54 | 40.65298 | -73.78613 | 23 ft | 13 kts | 240° |
| 2026-05-07 22:54 | 40.65253 | -73.78720 | 22 ft | 13 kts | 242° |
| 2026-05-07 22:54 | 40.65223 | -73.78823 | 23 ft | 8 kts | 258° |
| 2026-05-07 22:55 | 40.65203 | -73.78885 | 23 ft | 6 kts | 217° |
| 2026-05-07 22:55 | 40.65154 | -73.78906 | 24 ft | 8 kts | 187° |
| 2026-05-07 22:55 | 40.65084 | -73.78915 | 24 ft | 9 kts | 190° |
| 2026-05-07 22:55 | 40.65026 | -73.78955 | 25 ft | 9 kts | 231° |
| 2026-05-07 22:56 | 40.64995 | -73.79028 | 25 ft | 9 kts | 244° |
| 2026-05-07 22:56 | 40.64964 | -73.79102 | 24 ft | 9 kts | 240° |
| 2026-05-07 22:56 | 40.64932 | -73.79180 | 24 ft | 9 kts | 240° |
| 2026-05-07 22:56 | 40.64897 | -73.79260 | 23 ft | 10 kts | 240° |
| 2026-05-07 22:57 | 40.64863 | -73.79340 | 23 ft | 9 kts | 241° |
| 2026-05-07 22:57 | 40.64830 | -73.79419 | 23 ft | 9 kts | 240° |
| 2026-05-07 22:57 | 40.64792 | -73.79456 | 23 ft | 5 kts | 181° |
| 2026-05-07 22:57 | 40.64774 | -73.79448 | 23 ft | 2 kts | 141° |
| 2026-05-07 22:58 | 40.64760 | -73.79432 | 24 ft | 3 kts | 144° |
| 2026-05-07 22:58 | 40.64750 | -73.79424 | 24 ft | 0 kts | 149° |
| 2026-05-07 22:58 | 40.64748 | -73.79422 | 24 ft | 0 kts | 149° |